Portada
METAR-TAF:

METAR-TAF

Aeroports :

Teheran, Iran

latitud: 35-41N, longitud: 051-21E, altitud: 1204 m

Observació

L'informe es va fer fa 23 minuts, a les 14:00 UTC
Vent 6 kt del Sud/Sud-Est
Temperatura 9°C
Humitat 29%
Pressió 1019 hPa
Visibilitat 10 km o més
sense núvols per sota de 1500 mi sense presència de cumulonimbus.

METAR: OIII 211400Z 16006KT CAVOK 09/M08 Q1019 A3010

Hora: 17:53 (14:23 UTC)

Pronòstic

L'informe es va fer fa 2 hores i 53 minuts, a les 11:30 UTC
Pronòstic vàlid del 21 a les 12 UTC al 22 a les 18 UTC
Vent 8 kt del Sud
Visibilitat: 8000 m
Escasses núvols a una alçada de 3500 ft
Núvols disperses a una alçada de 10000 ft
Temporalment
l' 22 a les 06 UTC al 22 a les 12 UTC
Vent 12 kt del Oest/Sud-Oest
Escasses núvols a una alçada de 3500 ft, Cumulus congestus.
Núvols disperses a una alçada de 4000 ft
Núvols disperses a una alçada de 10000 ft

TAF: OIII 211130Z 2112/2218 17008KT 8000 FEW035 SCT100 TEMPO 2206/2212 24012KT FEW035TCU SCT040 SCT100

Observacions i pronòstics meteorològics de més de 4000 aeroports (METAR i TAF).

Les estacions disponibles són els punts grocs i vermells al mapa.

Posi el ratolí al punt desitjat per veure el nom de l'estació.

Feu clic per veure les observacions i els pronòstics meteorològics.

Per canviar el mapa: feu clic els botons verds amb una creu de color negre per apropar; al botó verd amb un guió per allunyar la imatge; o en les fletxes verdes per a mapes adjacents.


METAR-TAF: